Time,TemperatureF,DewpointF,PressureIn,WindDirection,WindDirectionDegrees,WindSpeedMPH,WindSpeedGustMPH,Humidity,HourlyPrecipIn,Conditions,Clouds,dailyrainin,SolarRadiationWatts/m^2,SoftwareType,DateUTC
2013-08-09 00:01:00,49.0,34.0,-100.00,NNE,24,0.0,0.0,57,0.00,,,0.00,0.000000,,2013-08-09 07:01:00,
2013-08-09 00:33:00,47.0,36.0,-100.00,North,352,0.0,0.0,65,0.00,,,0.00,0.000000,,2013-08-09 07:33:00,
2013-08-09 00:43:00,47.0,36.0,-100.00,North,352,0.0,0.0,65,0.00,,,0.00,0.000000,,2013-08-09 07:43:00,
2013-08-09 00:53:00,47.0,36.0,-100.00,North,352,0.0,0.0,65,0.00,,,0.00,0.000000,,2013-08-09 07:53:00,
2013-08-09 01:02:00,47.0,36.0,-100.00,North,352,0.0,0.0,65,0.00,,,0.00,0.000000,,2013-08-09 08:02:00,
2013-08-09 01:43:00,45.0,36.0,-100.00,NW,307,0.0,0.0,70,0.00,,,0.00,0.000000,,2013-08-09 08:43:00,
2013-08-09 01:53:00,45.0,36.0,-100.00,NW,307,0.0,0.0,70,0.00,,,0.00,0.000000,,2013-08-09 08:53:00,
2013-08-09 02:02:00,45.0,36.0,-100.00,NW,307,0.0,0.0,70,0.00,,,0.00,0.000000,,2013-08-09 09:02:00,
2013-08-09 02:32:00,44.0,36.0,-100.00,North,350,0.0,0.0,74,0.00,,,0.00,0.000000,,2013-08-09 09:32:00,
2013-08-09 02:43:00,44.0,36.0,-100.00,North,350,0.0,0.0,74,0.00,,,0.00,0.000000,,2013-08-09 09:43:00,
2013-08-09 02:52:00,44.0,36.0,-100.00,North,350,0.0,0.0,74,0.00,,,0.00,0.000000,,2013-08-09 09:52:00,
2013-08-09 03:01:00,44.0,36.0,-100.00,North,350,0.0,0.0,74,0.00,,,0.00,0.000000,,2013-08-09 10:01:00,
2013-08-09 03:32:00,43.0,36.0,-100.00,North,351,0.0,0.0,77,0.00,,,0.00,0.000000,,2013-08-09 10:32:00,
2013-08-09 03:43:00,43.0,36.0,-100.00,North,351,0.0,0.0,77,0.00,,,0.00,0.000000,,2013-08-09 10:43:00,
2013-08-09 03:53:00,43.0,36.0,-100.00,North,351,0.0,0.0,77,0.00,,,0.00,0.000000,,2013-08-09 10:53:00,
2013-08-09 04:01:00,43.0,36.0,-100.00,North,351,0.0,0.0,77,0.00,,,0.00,0.000000,,2013-08-09 11:01:00,
2013-08-09 04:43:00,42.0,36.0,-100.00,North,351,1.0,1.0,78,0.00,,,0.00,0.000000,,2013-08-09 11:43:00,
2013-08-09 04:53:00,42.0,36.0,-100.00,North,351,1.0,1.0,78,0.00,,,0.00,0.000000,,2013-08-09 11:53:00,
2013-08-09 05:02:00,42.0,36.0,-100.00,North,351,1.0,1.0,78,0.00,,,0.00,0.000000,,2013-08-09 12:02:00,
2013-08-09 05:43:00,41.0,35.0,-100.00,NNE,24,1.0,1.0,78,0.00,,,0.00,0.000000,,2013-08-09 12:43:00,
2013-08-09 05:52:00,41.0,35.0,-100.00,NNE,24,1.0,1.0,78,0.00,,,0.00,0.000000,,2013-08-09 12:52:00,
2013-08-09 06:01:00,41.0,35.0,-100.00,NNE,24,1.0,1.0,78,0.00,,,0.00,0.000000,,2013-08-09 13:01:00,
2013-08-09 06:32:00,41.0,35.0,-100.00,North,6,0.0,1.0,80,0.00,,,0.00,4.000000,,2013-08-09 13:32:00,
2013-08-09 06:43:00,41.0,35.0,-100.00,North,6,0.0,1.0,80,0.00,,,0.00,4.000000,,2013-08-09 13:43:00,
2013-08-09 06:52:00,41.0,35.0,-100.00,North,6,0.0,1.0,80,0.00,,,0.00,4.000000,,2013-08-09 13:52:00,
2013-08-09 07:02:00,41.0,35.0,-100.00,North,6,0.0,1.0,80,0.00,,,0.00,4.000000,,2013-08-09 14:02:00,
2013-08-09 07:43:00,54.0,44.0,-100.00,NE,50,0.0,3.0,70,0.00,,,0.00,120.000000,,2013-08-09 14:43:00,
2013-08-09 07:53:00,54.0,44.0,-100.00,NE,50,0.0,3.0,70,0.00,,,0.00,120.000000,,2013-08-09 14:53:00,
2013-08-09 08:01:00,54.0,44.0,-100.00,NE,50,0.0,3.0,70,0.00,,,0.00,120.000000,,2013-08-09 15:01:00,
2013-08-09 08:44:00,70.0,46.0,-100.00,NE,37,0.0,0.0,42,0.00,,,-99.99,375.000000,,2013-08-09 15:44:00,
2013-08-09 08:53:00,70.0,46.0,-100.00,NE,37,0.0,0.0,42,0.00,,,-99.99,375.000000,,2013-08-09 15:53:00,
2013-08-09 09:43:00,74.0,37.0,-100.00,SSW,210,0.0,0.0,26,0.00,,,0.00,577.000000,,2013-08-09 16:43:00,
2013-08-09 09:53:00,74.0,37.0,-100.00,SSW,210,0.0,0.0,26,0.00,,,0.00,577.000000,,2013-08-09 16:53:00,
2013-08-09 10:02:00,74.0,37.0,-100.00,SSW,210,0.0,0.0,26,0.00,,,0.00,577.000000,,2013-08-09 17:02:00,
2013-08-09 10:33:00,75.0,32.0,-100.00,SW,218,7.0,13.0,21,0.00,,,0.00,749.000000,,2013-08-09 17:33:00,
2013-08-09 10:43:00,75.0,32.0,-100.00,SW,218,7.0,13.0,21,0.00,,,0.00,749.000000,,2013-08-09 17:43:00,
2013-08-09 10:52:00,75.0,32.0,-100.00,SW,218,7.0,13.0,21,0.00,,,0.00,749.000000,,2013-08-09 17:52:00,
2013-08-09 11:01:00,75.0,32.0,-100.00,SW,218,7.0,13.0,21,0.00,,,0.00,749.000000,,2013-08-09 18:01:00,
2013-08-09 11:32:00,76.0,25.0,-100.00,South,188,10.0,17.0,15,0.00,,,0.00,876.000000,,2013-08-09 18:32:00,
2013-08-09 11:43:00,76.0,25.0,-100.00,South,188,10.0,17.0,15,0.00,,,0.00,876.000000,,2013-08-09 18:43:00,
2013-08-09 11:53:00,76.0,25.0,-100.00,South,188,10.0,17.0,15,0.00,,,0.00,876.000000,,2013-08-09 18:53:00,
2013-08-09 12:02:00,76.0,25.0,-100.00,South,188,10.0,17.0,15,0.00,,,0.00,876.000000,,2013-08-09 19:02:00,
2013-08-09 12:32:00,77.0,27.0,-100.00,South,187,8.0,18.0,16,0.00,,,0.00,945.000000,,2013-08-09 19:32:00,
2013-08-09 12:43:00,77.0,27.0,-100.00,South,187,8.0,18.0,16,0.00,,,0.00,945.000000,,2013-08-09 19:43:00,
2013-08-09 12:52:00,77.0,27.0,-100.00,South,187,8.0,18.0,16,0.00,,,0.00,945.000000,,2013-08-09 19:52:00,
2013-08-09 13:02:00,77.0,27.0,-100.00,South,187,8.0,18.0,16,0.00,,,0.00,945.000000,,2013-08-09 20:02:00,
2013-08-09 13:32:00,78.0,27.0,-100.00,SSW,193,10.0,21.0,15,0.00,,,0.00,963.000000,,2013-08-09 20:32:00,
2013-08-09 13:43:00,78.0,27.0,-100.00,SSW,193,10.0,21.0,15,0.00,,,0.00,963.000000,,2013-08-09 20:43:00,
2013-08-09 13:52:00,78.0,27.0,-100.00,SSW,193,10.0,21.0,15,0.00,,,0.00,963.000000,,2013-08-09 20:52:00,
2013-08-09 14:01:00,78.0,27.0,-100.00,SSW,193,10.0,21.0,15,0.00,,,0.00,963.000000,,2013-08-09 21:01:00,
2013-08-09 14:43:00,77.0,26.0,-100.00,SSE,166,8.0,20.0,15,0.00,,,0.00,879.000000,,2013-08-09 21:43:00,
2013-08-09 14:52:00,77.0,26.0,-100.00,SSE,166,8.0,20.0,15,0.00,,,0.00,879.000000,,2013-08-09 21:52:00,
2013-08-09 15:01:00,77.0,26.0,-100.00,SSE,166,8.0,20.0,15,0.00,,,0.00,879.000000,,2013-08-09 22:01:00,
2013-08-09 15:32:00,76.0,29.0,-100.00,South,187,9.0,18.0,18,0.00,,,0.00,643.000000,,2013-08-09 22:32:00,
2013-08-09 15:42:00,76.0,29.0,-100.00,South,187,9.0,18.0,18,0.00,,,0.00,643.000000,,2013-08-09 22:42:00,
2013-08-09 15:52:00,76.0,29.0,-100.00,South,187,9.0,18.0,18,0.00,,,0.00,643.000000,,2013-08-09 22:52:00,
2013-08-09 16:01:00,76.0,29.0,-100.00,South,187,9.0,18.0,18,0.00,,,0.00,643.000000,,2013-08-09 23:01:00,
2013-08-09 16:43:00,76.0,28.0,-100.00,SSW,197,9.0,16.0,17,0.00,,,0.00,348.000000,,2013-08-09 23:43:00,
2013-08-09 16:52:00,76.0,28.0,-100.00,SSW,197,9.0,16.0,17,0.00,,,0.00,348.000000,,2013-08-09 23:52:00,
2013-08-09 17:01:00,76.0,28.0,-100.00,SSW,197,9.0,16.0,17,0.00,,,0.00,348.000000,,2013-08-10 00:01:00,
2013-08-09 17:33:00,76.0,28.0,-100.00,SW,221,8.0,17.0,17,0.00,,,0.00,348.000000,,2013-08-10 00:33:00,
2013-08-09 17:43:00,76.0,28.0,-100.00,SW,221,8.0,17.0,17,0.00,,,0.00,348.000000,,2013-08-10 00:43:00,
2013-08-09 17:52:00,76.0,28.0,-100.00,SW,221,8.0,17.0,17,0.00,,,0.00,348.000000,,2013-08-10 00:52:00,
2013-08-09 18:01:00,76.0,28.0,-100.00,SW,221,8.0,17.0,17,0.00,,,0.00,348.000000,,2013-08-10 01:01:00,
2013-08-09 18:32:00,73.0,30.0,-100.00,South,176,8.0,14.0,20,0.00,,,0.00,80.000000,,2013-08-10 01:32:00,
2013-08-09 18:42:00,73.0,30.0,-100.00,South,176,8.0,14.0,20,0.00,,,0.00,80.000000,,2013-08-10 01:42:00,
2013-08-09 18:52:00,73.0,30.0,-100.00,South,176,8.0,14.0,20,0.00,,,0.00,80.000000,,2013-08-10 01:52:00,
2013-08-09 19:03:00,73.0,30.0,-100.00,South,176,8.0,14.0,20,0.00,,,0.00,80.000000,,2013-08-10 02:03:00,
2013-08-09 19:32:00,71.0,31.0,-100.00,SW,215,4.0,11.0,23,0.00,,,0.00,52.000000,,2013-08-10 02:32:00,
2013-08-09 19:42:00,71.0,31.0,-100.00,SW,215,4.0,11.0,23,0.00,,,0.00,52.000000,,2013-08-10 02:42:00,
2013-08-09 19:52:00,71.0,31.0,-100.00,SW,215,4.0,11.0,23,0.00,,,0.00,52.000000,,2013-08-10 02:52:00,
2013-08-09 20:01:00,71.0,31.0,-100.00,SW,215,4.0,11.0,23,0.00,,,0.00,52.000000,,2013-08-10 03:01:00,
2013-08-09 20:32:00,59.0,35.0,-100.00,NNW,341,0.0,5.0,40,0.00,,,0.00,2.000000,,2013-08-10 03:32:00,
2013-08-09 20:42:00,59.0,35.0,-100.00,NNW,341,0.0,5.0,40,0.00,,,0.00,2.000000,,2013-08-10 03:42:00,
2013-08-09 20:52:00,59.0,35.0,-100.00,NNW,341,0.0,5.0,40,0.00,,,0.00,2.000000,,2013-08-10 03:52:00,
2013-08-09 21:01:00,59.0,35.0,-100.00,NNW,341,0.0,5.0,40,0.00,,,0.00,2.000000,,2013-08-10 04:01:00,
2013-08-09 21:32:00,54.0,36.0,-100.00,NW,316,0.0,0.0,51,0.00,,,0.00,0.000000,,2013-08-10 04:32:00,
2013-08-09 21:43:00,54.0,36.0,-100.00,NW,316,0.0,0.0,51,0.00,,,0.00,0.000000,,2013-08-10 04:43:00,
2013-08-09 21:53:00,54.0,36.0,-100.00,NW,316,0.0,0.0,51,0.00,,,0.00,0.000000,,2013-08-10 04:53:00,
2013-08-09 22:02:00,54.0,36.0,-100.00,NW,316,0.0,0.0,51,0.00,,,0.00,0.000000,,2013-08-10 05:02:00,
2013-08-09 22:43:00,52.0,39.0,-100.00,NNE,12,1.0,3.0,61,0.00,,,0.00,0.000000,,2013-08-10 05:43:00,
2013-08-09 22:52:00,52.0,39.0,-100.00,NNE,12,1.0,3.0,61,0.00,,,0.00,0.000000,,2013-08-10 05:52:00,
2013-08-09 23:02:00,52.0,39.0,-100.00,NNE,12,1.0,3.0,61,0.00,,,0.00,0.000000,,2013-08-10 06:02:00,
2013-08-09 23:44:00,50.0,39.0,-100.00,North,355,0.0,4.0,66,0.00,,,0.00,0.000000,,2013-08-10 06:44:00,
2013-08-09 23:53:00,50.0,39.0,-100.00,North,355,0.0,4.0,66,0.00,,,0.00,0.000000,,2013-08-10 06:53:00,